sensor_id;sensor_type;location;lat;lon;timestamp;P1;durP1;ratioP1;P2;durP2;ratioP2
27999;SDS011;15328;50.860;10.562;2023-08-17T00:02:15;1.70;;;0.67;;
27999;SDS011;15328;50.860;10.562;2023-08-17T00:07:15;1.23;;;0.73;;
27999;SDS011;15328;50.860;10.562;2023-08-17T00:12:16;2.10;;;0.90;;
27999;SDS011;15328;50.860;10.562;2023-08-17T00:17:16;2.20;;;0.70;;
27999;SDS011;15328;50.860;10.562;2023-08-17T00:22:17;2.50;;;0.90;;
27999;SDS011;15328;50.860;10.562;2023-08-17T00:27:17;1.70;;;0.90;;
27999;SDS011;15328;50.860;10.562;2023-08-17T00:32:17;1.80;;;0.80;;
27999;SDS011;15328;50.860;10.562;2023-08-17T00:37:18;2.43;;;0.90;;
27999;SDS011;15328;50.860;10.562;2023-08-17T00:42:18;2.60;;;0.70;;
27999;SDS011;15328;50.860;10.562;2023-08-17T00:47:18;3.73;;;0.90;;
27999;SDS011;15328;50.860;10.562;2023-08-17T00:52:19;1.67;;;0.68;;
27999;SDS011;15328;50.860;10.562;2023-08-17T00:57:19;1.57;;;0.60;;
27999;SDS011;15328;50.860;10.562;2023-08-17T01:02:20;1.73;;;0.70;;
27999;SDS011;15328;50.860;10.562;2023-08-17T01:07:21;1.95;;;0.70;;
27999;SDS011;15328;50.860;10.562;2023-08-17T01:17:37;1.98;;;0.60;;
27999;SDS011;15328;50.860;10.562;2023-08-17T01:22:45;1.77;;;0.82;;
27999;SDS011;15328;50.860;10.562;2023-08-17T01:27:48;1.25;;;0.80;;
27999;SDS011;15328;50.860;10.562;2023-08-17T01:37:58;0.98;;;0.70;;
27999;SDS011;15328;50.860;10.562;2023-08-17T01:43:03;1.48;;;0.70;;
27999;SDS011;15328;50.860;10.562;2023-08-17T01:48:04;2.53;;;0.80;;
27999;SDS011;15328;50.860;10.562;2023-08-17T01:53:05;2.70;;;0.93;;
27999;SDS011;15328;50.860;10.562;2023-08-17T01:58:05;1.70;;;0.93;;
27999;SDS011;15328;50.860;10.562;2023-08-17T02:03:06;1.80;;;0.77;;
27999;SDS011;15328;50.860;10.562;2023-08-17T02:08:06;1.30;;;0.63;;
27999;SDS011;15328;50.860;10.562;2023-08-17T02:13:07;1.42;;;0.68;;
27999;SDS011;15328;50.860;10.562;2023-08-17T02:18:07;1.38;;;0.57;;
27999;SDS011;15328;50.860;10.562;2023-08-17T02:23:08;1.10;;;0.70;;
27999;SDS011;15328;50.860;10.562;2023-08-17T02:28:08;1.55;;;0.80;;
27999;SDS011;15328;50.860;10.562;2023-08-17T02:33:09;1.93;;;1.00;;
27999;SDS011;15328;50.860;10.562;2023-08-17T02:38:09;1.58;;;0.77;;
27999;SDS011;15328;50.860;10.562;2023-08-17T02:43:10;2.07;;;1.13;;
27999;SDS011;15328;50.860;10.562;2023-08-17T02:48:10;2.20;;;0.93;;
27999;SDS011;15328;50.860;10.562;2023-08-17T02:53:10;1.67;;;0.90;;
27999;SDS011;15328;50.860;10.562;2023-08-17T02:58:11;2.20;;;1.03;;
27999;SDS011;15328;50.860;10.562;2023-08-17T03:03:11;1.83;;;1.20;;
27999;SDS011;15328;50.860;10.562;2023-08-17T03:08:11;1.85;;;1.13;;
27999;SDS011;15328;50.860;10.562;2023-08-17T03:13:12;1.97;;;1.10;;
27999;SDS011;15328;50.860;10.562;2023-08-17T03:18:12;1.70;;;1.20;;
27999;SDS011;15328;50.860;10.562;2023-08-17T03:23:12;2.00;;;1.10;;
27999;SDS011;15328;50.860;10.562;2023-08-17T03:28:13;2.07;;;1.40;;
27999;SDS011;15328;50.860;10.562;2023-08-17T03:33:13;2.83;;;1.73;;
27999;SDS011;15328;50.860;10.562;2023-08-17T03:38:13;3.23;;;1.47;;
27999;SDS011;15328;50.860;10.562;2023-08-17T03:43:14;3.58;;;2.10;;
27999;SDS011;15328;50.860;10.562;2023-08-17T03:48:15;3.10;;;1.80;;
27999;SDS011;15328;50.860;10.562;2023-08-17T03:53:15;2.35;;;1.60;;
27999;SDS011;15328;50.860;10.562;2023-08-17T03:58:16;1.88;;;1.30;;
27999;SDS011;15328;50.860;10.562;2023-08-17T04:03:18;2.53;;;1.60;;
27999;SDS011;15328;50.860;10.562;2023-08-17T04:08:19;2.53;;;1.40;;
27999;SDS011;15328;50.860;10.562;2023-08-17T04:13:19;1.50;;;1.37;;
27999;SDS011;15328;50.860;10.562;2023-08-17T04:18:19;2.20;;;1.50;;
27999;SDS011;15328;50.860;10.562;2023-08-17T04:23:20;2.50;;;2.03;;
27999;SDS011;15328;50.860;10.562;2023-08-17T04:28:20;4.18;;;2.20;;
27999;SDS011;15328;50.860;10.562;2023-08-17T04:33:21;3.40;;;2.30;;
27999;SDS011;15328;50.860;10.562;2023-08-17T04:38:21;3.13;;;2.00;;
27999;SDS011;15328;50.860;10.562;2023-08-17T04:43:22;3.13;;;2.00;;
27999;SDS011;15328;50.860;10.562;2023-08-17T04:48:22;3.27;;;2.27;;
27999;SDS011;15328;50.860;10.562;2023-08-17T04:53:22;1.97;;;1.77;;
27999;SDS011;15328;50.860;10.562;2023-08-17T04:58:23;2.75;;;1.95;;
27999;SDS011;15328;50.860;10.562;2023-08-17T05:03:23;3.57;;;2.27;;
27999;SDS011;15328;50.860;10.562;2023-08-17T05:08:23;2.40;;;2.20;;
27999;SDS011;15328;50.860;10.562;2023-08-17T05:13:24;3.13;;;2.40;;
27999;SDS011;15328;50.860;10.562;2023-08-17T05:18:24;3.00;;;2.27;;
27999;SDS011;15328;50.860;10.562;2023-08-17T05:23:24;3.60;;;2.00;;
27999;SDS011;15328;50.860;10.562;2023-08-17T05:28:25;2.10;;;1.83;;
27999;SDS011;15328;50.860;10.562;2023-08-17T05:33:25;3.10;;;2.53;;
27999;SDS011;15328;50.860;10.562;2023-08-17T05:38:26;2.83;;;2.53;;
27999;SDS011;15328;50.860;10.562;2023-08-17T05:43:26;4.20;;;3.33;;
27999;SDS011;15328;50.860;10.562;2023-08-17T05:48:26;3.10;;;2.60;;
27999;SDS011;15328;50.860;10.562;2023-08-17T05:53:27;2.90;;;2.20;;
27999;SDS011;15328;50.860;10.562;2023-08-17T05:58:27;3.00;;;2.33;;
27999;SDS011;15328;50.860;10.562;2023-08-17T06:03:27;2.07;;;1.80;;
27999;SDS011;15328;50.860;10.562;2023-08-17T06:08:28;1.90;;;1.70;;
27999;SDS011;15328;50.860;10.562;2023-08-17T06:13:29;2.33;;;1.95;;
27999;SDS011;15328;50.860;10.562;2023-08-17T06:18:29;2.45;;;2.10;;
27999;SDS011;15328;50.860;10.562;2023-08-17T06:23:30;3.08;;;2.63;;
27999;SDS011;15328;50.860;10.562;2023-08-17T06:28:31;3.50;;;3.00;;
27999;SDS011;15328;50.860;10.562;2023-08-17T06:33:31;3.72;;;2.80;;
27999;SDS011;15328;50.860;10.562;2023-08-17T06:38:31;3.00;;;2.70;;
27999;SDS011;15328;50.860;10.562;2023-08-17T06:43:32;3.43;;;3.10;;
27999;SDS011;15328;50.860;10.562;2023-08-17T06:48:32;3.38;;;2.80;;
27999;SDS011;15328;50.860;10.562;2023-08-17T06:53:33;2.50;;;2.13;;
27999;SDS011;15328;50.860;10.562;2023-08-17T06:58:33;2.40;;;2.20;;
27999;SDS011;15328;50.860;10.562;2023-08-17T07:03:33;3.97;;;2.65;;
27999;SDS011;15328;50.860;10.562;2023-08-17T07:08:34;3.93;;;2.97;;
27999;SDS011;15328;50.860;10.562;2023-08-17T07:13:34;3.37;;;2.90;;
27999;SDS011;15328;50.860;10.562;2023-08-17T07:18:34;2.88;;;2.58;;
27999;SDS011;15328;50.860;10.562;2023-08-17T07:23:35;3.93;;;3.47;;
27999;SDS011;15328;50.860;10.562;2023-08-17T07:28:35;8.93;;;6.00;;
27999;SDS011;15328;50.860;10.562;2023-08-17T07:33:35;11.67;;;7.93;;
27999;SDS011;15328;50.860;10.562;2023-08-17T07:38:36;17.65;;;11.25;;
27999;SDS011;15328;50.860;10.562;2023-08-17T07:43:36;20.93;;;14.67;;
27999;SDS011;15328;50.860;10.562;2023-08-17T07:48:37;23.27;;;14.97;;
27999;SDS011;15328;50.860;10.562;2023-08-17T07:53:37;26.77;;;17.93;;
27999;SDS011;15328;50.860;10.562;2023-08-17T07:58:38;28.83;;;19.48;;
27999;SDS011;15328;50.860;10.562;2023-08-17T08:03:39;24.05;;;16.20;;
27999;SDS011;15328;50.860;10.562;2023-08-17T08:08:39;22.33;;;14.52;;
27999;SDS011;15328;50.860;10.562;2023-08-17T08:13:40;26.00;;;17.52;;
27999;SDS011;15328;50.860;10.562;2023-08-17T08:18:40;32.37;;;19.53;;
27999;SDS011;15328;50.860;10.562;2023-08-17T08:23:41;21.88;;;15.13;;
27999;SDS011;15328;50.860;10.562;2023-08-17T08:28:41;23.97;;;15.67;;
27999;SDS011;15328;50.860;10.562;2023-08-17T08:33:42;18.60;;;13.67;;
27999;SDS011;15328;50.860;10.562;2023-08-17T08:38:43;18.55;;;12.93;;
27999;SDS011;15328;50.860;10.562;2023-08-17T08:43:44;15.52;;;11.35;;
27999;SDS011;15328;50.860;10.562;2023-08-17T08:48:45;27.25;;;17.20;;
27999;SDS011;15328;50.860;10.562;2023-08-17T08:53:48;27.40;;;18.60;;
27999;SDS011;15328;50.860;10.562;2023-08-17T08:59:03;27.48;;;18.65;;
27999;SDS011;15328;50.860;10.562;2023-08-17T09:04:04;23.00;;;16.23;;
27999;SDS011;15328;50.860;10.562;2023-08-17T09:09:05;18.70;;;13.30;;
27999;SDS011;15328;50.860;10.562;2023-08-17T09:14:07;17.92;;;11.45;;
27999;SDS011;15328;50.860;10.562;2023-08-17T09:19:08;14.18;;;10.77;;
27999;SDS011;15328;50.860;10.562;2023-08-17T09:24:09;18.13;;;12.32;;
27999;SDS011;15328;50.860;10.562;2023-08-17T09:29:19;16.42;;;11.10;;
27999;SDS011;15328;50.860;10.562;2023-08-17T09:34:20;18.38;;;12.90;;
27999;SDS011;15328;50.860;10.562;2023-08-17T09:39:21;21.00;;;13.77;;
27999;SDS011;15328;50.860;10.562;2023-08-17T09:44:21;23.97;;;15.57;;
27999;SDS011;15328;50.860;10.562;2023-08-17T09:49:25;17.63;;;12.77;;
27999;SDS011;15328;50.860;10.562;2023-08-17T09:54:25;16.52;;;12.63;;
27999;SDS011;15328;50.860;10.562;2023-08-17T09:59:28;17.40;;;12.77;;
27999;SDS011;15328;50.860;10.562;2023-08-17T10:04:29;19.17;;;13.85;;
27999;SDS011;15328;50.860;10.562;2023-08-17T10:09:34;27.88;;;19.25;;
27999;SDS011;15328;50.860;10.562;2023-08-17T10:14:48;23.70;;;17.25;;
27999;SDS011;15328;50.860;10.562;2023-08-17T10:19:54;24.75;;;17.85;;
27999;SDS011;15328;50.860;10.562;2023-08-17T10:24:58;27.10;;;18.33;;
27999;SDS011;15328;50.860;10.562;2023-08-17T10:30:01;23.90;;;17.23;;
27999;SDS011;15328;50.860;10.562;2023-08-17T10:35:01;20.73;;;15.15;;
27999;SDS011;15328;50.860;10.562;2023-08-17T10:40:03;23.38;;;16.60;;
27999;SDS011;15328;50.860;10.562;2023-08-17T10:50:28;23.70;;;18.02;;
27999;SDS011;15328;50.860;10.562;2023-08-17T10:55:36;19.25;;;14.80;;
27999;SDS011;15328;50.860;10.562;2023-08-17T11:00:41;18.55;;;13.88;;
27999;SDS011;15328;50.860;10.562;2023-08-17T11:16:05;13.53;;;11.03;;
27999;SDS011;15328;50.860;10.562;2023-08-17T11:21:06;12.85;;;11.02;;
27999;SDS011;15328;50.860;10.562;2023-08-17T11:26:08;10.43;;;8.40;;
27999;SDS011;15328;50.860;10.562;2023-08-17T11:31:09;10.30;;;8.45;;
27999;SDS011;15328;50.860;10.562;2023-08-17T11:36:11;8.32;;;7.38;;
27999;SDS011;15328;50.860;10.562;2023-08-17T11:41:12;8.35;;;6.97;;
27999;SDS011;15328;50.860;10.562;2023-08-17T11:46:13;7.97;;;7.15;;
27999;SDS011;15328;50.860;10.562;2023-08-17T11:51:13;6.75;;;5.63;;
27999;SDS011;15328;50.860;10.562;2023-08-17T11:56:14;6.50;;;5.73;;
27999;SDS011;15328;50.860;10.562;2023-08-17T12:01:14;8.27;;;6.88;;
27999;SDS011;15328;50.860;10.562;2023-08-17T12:06:18;11.13;;;8.55;;
27999;SDS011;15328;50.860;10.562;2023-08-17T12:11:18;9.70;;;7.65;;
27999;SDS011;15328;50.860;10.562;2023-08-17T12:16:19;8.77;;;7.07;;
27999;SDS011;15328;50.860;10.562;2023-08-17T12:21:24;9.85;;;8.70;;
27999;SDS011;15328;50.860;10.562;2023-08-17T12:26:24;8.75;;;7.47;;
27999;SDS011;15328;50.860;10.562;2023-08-17T12:31:24;9.23;;;7.90;;
27999;SDS011;15328;50.860;10.562;2023-08-17T12:36:25;9.63;;;7.87;;
27999;SDS011;15328;50.860;10.562;2023-08-17T12:41:25;9.13;;;7.93;;
27999;SDS011;15328;50.860;10.562;2023-08-17T12:46:25;10.90;;;8.17;;
27999;SDS011;15328;50.860;10.562;2023-08-17T12:51:26;8.15;;;7.00;;
27999;SDS011;15328;50.860;10.562;2023-08-17T12:56:26;8.53;;;7.27;;
27999;SDS011;15328;50.860;10.562;2023-08-17T13:01:27;11.90;;;9.43;;
27999;SDS011;15328;50.860;10.562;2023-08-17T13:06:27;10.93;;;9.23;;
27999;SDS011;15328;50.860;10.562;2023-08-17T13:11:28;14.18;;;10.77;;
27999;SDS011;15328;50.860;10.562;2023-08-17T13:16:28;13.80;;;11.80;;
27999;SDS011;15328;50.860;10.562;2023-08-17T13:21:28;12.87;;;10.77;;
27999;SDS011;15328;50.860;10.562;2023-08-17T13:26:29;14.50;;;10.80;;
27999;SDS011;15328;50.860;10.562;2023-08-17T13:31:30;10.48;;;9.05;;
27999;SDS011;15328;50.860;10.562;2023-08-17T13:36:31;8.35;;;7.45;;
27999;SDS011;15328;50.860;10.562;2023-08-17T13:41:31;10.52;;;8.40;;
27999;SDS011;15328;50.860;10.562;2023-08-17T13:46:32;9.63;;;8.57;;
27999;SDS011;15328;50.860;10.562;2023-08-17T13:51:32;11.63;;;9.77;;
27999;SDS011;15328;50.860;10.562;2023-08-17T13:56:32;8.37;;;7.47;;
27999;SDS011;15328;50.860;10.562;2023-08-17T14:01:33;9.03;;;7.87;;
27999;SDS011;15328;50.860;10.562;2023-08-17T14:06:33;9.17;;;8.27;;
27999;SDS011;15328;50.860;10.562;2023-08-17T14:11:33;7.93;;;6.70;;
27999;SDS011;15328;50.860;10.562;2023-08-17T14:16:34;8.37;;;7.47;;
27999;SDS011;15328;50.860;10.562;2023-08-17T14:21:35;9.77;;;8.77;;
27999;SDS011;15328;50.860;10.562;2023-08-17T14:26:36;8.33;;;7.50;;
27999;SDS011;15328;50.860;10.562;2023-08-17T14:31:36;7.30;;;6.60;;
27999;SDS011;15328;50.860;10.562;2023-08-17T14:36:36;7.70;;;6.90;;
27999;SDS011;15328;50.860;10.562;2023-08-17T14:41:37;6.10;;;5.50;;
27999;SDS011;15328;50.860;10.562;2023-08-17T14:46:37;7.73;;;6.50;;
27999;SDS011;15328;50.860;10.562;2023-08-17T14:51:40;7.65;;;6.82;;
27999;SDS011;15328;50.860;10.562;2023-08-17T14:56:41;7.22;;;6.53;;
27999;SDS011;15328;50.860;10.562;2023-08-17T15:01:41;6.20;;;5.60;;
27999;SDS011;15328;50.860;10.562;2023-08-17T15:06:41;7.03;;;6.33;;
27999;SDS011;15328;50.860;10.562;2023-08-17T15:11:42;6.53;;;5.73;;
27999;SDS011;15328;50.860;10.562;2023-08-17T15:16:42;5.43;;;4.93;;
27999;SDS011;15328;50.860;10.562;2023-08-17T15:21:42;5.50;;;5.00;;
27999;SDS011;15328;50.860;10.562;2023-08-17T15:26:43;5.27;;;4.77;;
27999;SDS011;15328;50.860;10.562;2023-08-17T15:31:43;5.03;;;4.53;;
27999;SDS011;15328;50.860;10.562;2023-08-17T15:36:45;5.70;;;5.10;;
27999;SDS011;15328;50.860;10.562;2023-08-17T15:41:45;6.40;;;5.80;;
27999;SDS011;15328;50.860;10.562;2023-08-17T15:46:45;5.60;;;5.10;;
27999;SDS011;15328;50.860;10.562;2023-08-17T15:51:45;5.27;;;4.77;;
27999;SDS011;15328;50.860;10.562;2023-08-17T15:56:46;5.13;;;4.63;;
27999;SDS011;15328;50.860;10.562;2023-08-17T16:01:46;5.67;;;5.07;;
27999;SDS011;15328;50.860;10.562;2023-08-17T16:06:47;6.22;;;5.45;;
27999;SDS011;15328;50.860;10.562;2023-08-17T16:11:47;7.17;;;6.47;;
27999;SDS011;15328;50.860;10.562;2023-08-17T16:16:48;6.22;;;5.63;;
27999;SDS011;15328;50.860;10.562;2023-08-17T16:21:48;6.40;;;5.80;;
27999;SDS011;15328;50.860;10.562;2023-08-17T16:26:49;6.70;;;6.07;;
27999;SDS011;15328;50.860;10.562;2023-08-17T16:32:02;6.93;;;6.23;;
27999;SDS011;15328;50.860;10.562;2023-08-17T16:37:03;6.57;;;5.75;;
27999;SDS011;15328;50.860;10.562;2023-08-17T16:42:03;6.82;;;5.88;;
27999;SDS011;15328;50.860;10.562;2023-08-17T16:47:04;6.50;;;5.63;;
27999;SDS011;15328;50.860;10.562;2023-08-17T16:52:04;7.47;;;6.35;;
27999;SDS011;15328;50.860;10.562;2023-08-17T16:57:05;5.68;;;5.07;;
27999;SDS011;15328;50.860;10.562;2023-08-17T17:02:06;5.80;;;5.20;;
27999;SDS011;15328;50.860;10.562;2023-08-17T17:07:07;5.97;;;5.38;;
27999;SDS011;15328;50.860;10.562;2023-08-17T17:12:07;5.60;;;5.00;;
27999;SDS011;15328;50.860;10.562;2023-08-17T17:17:08;5.70;;;5.10;;
27999;SDS011;15328;50.860;10.562;2023-08-17T17:22:08;5.00;;;4.47;;
27999;SDS011;15328;50.860;10.562;2023-08-17T17:27:09;5.23;;;4.53;;
27999;SDS011;15328;50.860;10.562;2023-08-17T17:32:09;4.20;;;3.80;;
27999;SDS011;15328;50.860;10.562;2023-08-17T17:37:09;4.27;;;3.87;;
27999;SDS011;15328;50.860;10.562;2023-08-17T17:42:10;8.18;;;7.00;;
27999;SDS011;15328;50.860;10.562;2023-08-17T17:47:10;7.00;;;6.30;;
27999;SDS011;15328;50.860;10.562;2023-08-17T17:52:11;6.27;;;5.67;;
27999;SDS011;15328;50.860;10.562;2023-08-17T17:57:12;6.63;;;5.95;;
27999;SDS011;15328;50.860;10.562;2023-08-17T18:02:12;5.83;;;5.23;;
27999;SDS011;15328;50.860;10.562;2023-08-17T18:07:13;6.33;;;5.20;;
27999;SDS011;15328;50.860;10.562;2023-08-17T18:12:13;4.70;;;4.20;;
27999;SDS011;15328;50.860;10.562;2023-08-17T18:17:13;4.97;;;4.47;;
27999;SDS011;15328;50.860;10.562;2023-08-17T18:22:14;4.70;;;4.20;;
27999;SDS011;15328;50.860;10.562;2023-08-17T18:27:15;4.73;;;4.33;;
27999;SDS011;15328;50.860;10.562;2023-08-17T18:32:15;4.70;;;4.30;;
27999;SDS011;15328;50.860;10.562;2023-08-17T18:37:15;8.50;;;6.80;;
27999;SDS011;15328;50.860;10.562;2023-08-17T18:42:16;6.30;;;5.70;;
27999;SDS011;15328;50.860;10.562;2023-08-17T18:47:16;6.30;;;5.70;;
27999;SDS011;15328;50.860;10.562;2023-08-17T18:52:16;6.90;;;6.20;;
27999;SDS011;15328;50.860;10.562;2023-08-17T18:57:18;7.38;;;6.38;;
27999;SDS011;15328;50.860;10.562;2023-08-17T19:02:18;6.93;;;6.23;;
27999;SDS011;15328;50.860;10.562;2023-08-17T19:07:19;7.20;;;6.50;;
27999;SDS011;15328;50.860;10.562;2023-08-17T19:12:19;6.90;;;6.20;;
27999;SDS011;15328;50.860;10.562;2023-08-17T19:17:20;6.80;;;6.10;;
27999;SDS011;15328;50.860;10.562;2023-08-17T19:22:20;8.32;;;7.47;;
27999;SDS011;15328;50.860;10.562;2023-08-17T19:27:21;8.00;;;7.20;;
27999;SDS011;15328;50.860;10.562;2023-08-17T19:32:21;8.73;;;7.82;;
27999;SDS011;15328;50.860;10.562;2023-08-17T19:37:22;9.27;;;8.35;;
27999;SDS011;15328;50.860;10.562;2023-08-17T19:42:22;9.70;;;8.70;;
27999;SDS011;15328;50.860;10.562;2023-08-17T19:47:23;8.77;;;7.88;;
27999;SDS011;15328;50.860;10.562;2023-08-17T19:52:23;7.97;;;7.18;;
27999;SDS011;15328;50.860;10.562;2023-08-17T19:57:24;7.57;;;6.87;;
27999;SDS011;15328;50.860;10.562;2023-08-17T20:02:25;8.43;;;7.22;;
27999;SDS011;15328;50.860;10.562;2023-08-17T20:07:25;7.40;;;6.70;;
27999;SDS011;15328;50.860;10.562;2023-08-17T20:12:26;7.27;;;6.57;;
27999;SDS011;15328;50.860;10.562;2023-08-17T20:17:26;7.93;;;7.10;;
27999;SDS011;15328;50.860;10.562;2023-08-17T20:22:27;10.27;;;8.30;;
27999;SDS011;15328;50.860;10.562;2023-08-17T20:27:27;8.80;;;8.00;;
27999;SDS011;15328;50.860;10.562;2023-08-17T20:32:27;8.63;;;7.80;;
27999;SDS011;15328;50.860;10.562;2023-08-17T20:37:28;7.60;;;6.90;;
27999;SDS011;15328;50.860;10.562;2023-08-17T20:42:28;10.05;;;9.05;;
27999;SDS011;15328;50.860;10.562;2023-08-17T20:47:29;10.20;;;9.10;;
27999;SDS011;15328;50.860;10.562;2023-08-17T20:52:30;10.07;;;8.98;;
27999;SDS011;15328;50.860;10.562;2023-08-17T20:57:30;11.03;;;9.23;;
27999;SDS011;15328;50.860;10.562;2023-08-17T21:02:31;9.17;;;8.27;;
27999;SDS011;15328;50.860;10.562;2023-08-17T21:07:32;8.75;;;7.75;;
27999;SDS011;15328;50.860;10.562;2023-08-17T21:12:33;7.97;;;7.20;;
27999;SDS011;15328;50.860;10.562;2023-08-17T21:17:33;8.30;;;7.37;;
27999;SDS011;15328;50.860;10.562;2023-08-17T21:22:36;8.05;;;7.25;;
27999;SDS011;15328;50.860;10.562;2023-08-17T21:27:37;8.10;;;7.10;;
27999;SDS011;15328;50.860;10.562;2023-08-17T21:32:38;7.95;;;7.15;;
27999;SDS011;15328;50.860;10.562;2023-08-17T21:37:38;7.73;;;7.00;;
27999;SDS011;15328;50.860;10.562;2023-08-17T21:42:40;8.43;;;7.40;;
27999;SDS011;15328;50.860;10.562;2023-08-17T21:47:40;7.93;;;7.20;;
27999;SDS011;15328;50.860;10.562;2023-08-17T21:52:41;7.97;;;7.20;;
27999;SDS011;15328;50.860;10.562;2023-08-17T21:57:41;7.57;;;6.70;;
27999;SDS011;15328;50.860;10.562;2023-08-17T22:02:41;8.13;;;6.80;;
27999;SDS011;15328;50.860;10.562;2023-08-17T22:07:42;8.00;;;7.20;;
27999;SDS011;15328;50.860;10.562;2023-08-17T22:12:42;8.17;;;7.37;;
27999;SDS011;15328;50.860;10.562;2023-08-17T22:17:43;9.45;;;8.38;;
27999;SDS011;15328;50.860;10.562;2023-08-17T22:22:44;8.70;;;7.78;;
27999;SDS011;15328;50.860;10.562;2023-08-17T22:27:45;10.43;;;9.32;;
27999;SDS011;15328;50.860;10.562;2023-08-17T22:32:45;8.90;;;8.00;;
27999;SDS011;15328;50.860;10.562;2023-08-17T22:37:46;8.25;;;7.45;;
27999;SDS011;15328;50.860;10.562;2023-08-17T22:42:46;8.70;;;7.67;;
27999;SDS011;15328;50.860;10.562;2023-08-17T22:47:46;9.03;;;8.10;;
27999;SDS011;15328;50.860;10.562;2023-08-17T22:52:47;9.70;;;8.70;;
27999;SDS011;15328;50.860;10.562;2023-08-17T22:57:47;8.73;;;7.83;;
27999;SDS011;15328;50.860;10.562;2023-08-17T23:02:47;9.00;;;8.10;;
27999;SDS011;15328;50.860;10.562;2023-08-17T23:07:48;8.13;;;7.20;;
27999;SDS011;15328;50.860;10.562;2023-08-17T23:12:48;7.63;;;6.93;;
27999;SDS011;15328;50.860;10.562;2023-08-17T23:17:48;8.60;;;7.77;;
27999;SDS011;15328;50.860;10.562;2023-08-17T23:22:50;7.50;;;6.80;;
27999;SDS011;15328;50.860;10.562;2023-08-17T23:27:51;8.07;;;7.28;;
27999;SDS011;15328;50.860;10.562;2023-08-17T23:32:51;7.67;;;6.87;;
27999;SDS011;15328;50.860;10.562;2023-08-17T23:37:54;8.27;;;7.47;;
27999;SDS011;15328;50.860;10.562;2023-08-17T23:42:55;7.18;;;6.47;;
27999;SDS011;15328;50.860;10.562;2023-08-17T23:47:55;10.97;;;7.20;;
27999;SDS011;15328;50.860;10.562;2023-08-17T23:52:56;7.97;;;7.17;;
27999;SDS011;15328;50.860;10.562;2023-08-17T23:57:56;7.13;;;6.43;;
